createdAt,value
2024-01-27T00:00:28.952Z,102287.25
2024-01-27T00:03:01.315Z,102293.47
2024-01-27T00:05:31.859Z,102281.72
2024-01-27T00:07:59.387Z,102286.69
2024-01-27T00:10:27.523Z,102282.28
2024-01-27T00:13:00.300Z,102290.72
2024-01-27T00:15:27.249Z,102291.69
2024-01-27T00:17:57.474Z,102297.84
2024-01-27T00:20:25.023Z,102293.63
2024-01-27T00:22:51.957Z,102284.59
2024-01-27T00:25:18.876Z,102281.78
2024-01-27T00:27:45.951Z,102283.84
2024-01-27T00:30:13.173Z,102293.06
2024-01-27T00:32:41.277Z,102284.66
2024-01-27T00:35:12.770Z,102279.38
2024-01-27T00:37:39.832Z,102279.69
2024-01-27T00:40:12.020Z,102282.75
2024-01-27T00:42:39.117Z,102287.09
2024-01-27T00:45:06.748Z,102298.09
2024-01-27T00:47:33.726Z,102306.16
2024-01-27T00:50:00.659Z,102303.84
2024-01-27T00:52:27.678Z,102299.84
2024-01-27T00:54:54.747Z,102300.72
2024-01-27T00:57:21.734Z,102297.31
2024-01-27T00:59:48.767Z,102307.28
2024-01-27T01:02:15.670Z,102316.69
2024-01-27T01:04:43.745Z,102329.72
2024-01-27T01:07:10.760Z,102331.84
2024-01-27T01:09:37.708Z,102331.56
2024-01-27T01:12:07.942Z,102323.75
2024-01-27T01:14:35.753Z,102333.47
2024-01-27T01:17:03.019Z,102345.25
2024-01-27T01:19:32.526Z,102335.16
2024-01-27T01:21:59.445Z,102340.22
2024-01-27T01:24:26.590Z,102344.25
2024-01-27T01:26:53.526Z,102349.28
2024-01-27T01:29:20.452Z,102347.41
2024-01-27T01:31:47.348Z,102343.53
2024-01-27T01:34:19.394Z,102342.22
2024-01-27T01:36:46.826Z,102343.97
2024-01-27T01:39:14.682Z,102338.25
2024-01-27T01:41:41.880Z,102342.91
2024-01-27T01:44:11.997Z,102342.25
2024-01-27T01:46:38.907Z,102345.03
2024-01-27T01:49:06.237Z,102341.63
2024-01-27T01:51:33.704Z,102344.06
2024-01-27T01:54:02.901Z,102356.06
2024-01-27T01:56:30.571Z,102358.69
2024-01-27T01:58:57.498Z,102371.34
2024-01-27T02:01:24.819Z,102363.78
2024-01-27T02:03:55.724Z,102354.97
2024-01-27T02:06:22.814Z,102363.59
2024-01-27T02:08:52.703Z,102368.72
2024-01-27T02:11:30.008Z,102368.78
2024-01-27T02:13:57.279Z,102377.56
2024-01-27T02:16:24.175Z,102381.44
2024-01-27T02:18:53.987Z,102385.00
2024-01-27T02:21:21.072Z,102387.72
2024-01-27T02:23:47.996Z,102388.75
2024-01-27T02:26:21.209Z,102387.78
2024-01-27T02:28:48.259Z,102382.81
2024-01-27T02:31:20.472Z,102379.38
2024-01-27T02:33:47.999Z,102384.28
2024-01-27T02:36:15.039Z,102381.75
2024-01-27T02:38:41.966Z,102373.28
2024-01-27T02:41:08.905Z,102378.66
2024-01-27T02:43:38.784Z,102373.28
2024-01-27T02:46:08.719Z,102374.88
2024-01-27T02:48:35.748Z,102374.25
2024-01-27T02:51:05.930Z,102374.31
2024-01-27T02:53:35.835Z,102374.50
2024-01-27T02:56:03.053Z,102378.06
2024-01-27T02:58:31.224Z,102373.16
2024-01-27T03:00:58.115Z,102382.41
2024-01-27T03:03:25.131Z,102382.00
2024-01-27T03:05:55.912Z,102396.94
2024-01-27T03:08:29.734Z,102393.03
2024-01-27T03:10:57.506Z,102404.78
2024-01-27T03:13:26.808Z,102402.88
2024-01-27T03:15:59.266Z,102403.38
2024-01-27T03:18:26.819Z,102404.25
2024-01-27T03:20:53.925Z,102400.56
2024-01-27T03:23:30.918Z,102399.50
2024-01-27T03:26:06.186Z,102397.13
2024-01-27T03:28:42.132Z,102401.81
2024-01-27T03:31:11.418Z,102407.34
2024-01-27T03:33:38.496Z,102412.34
2024-01-27T03:36:10.408Z,102411.69
2024-01-27T03:38:40.925Z,102421.31
2024-01-27T03:41:13.421Z,102420.22
2024-01-27T03:43:42.598Z,102417.25
2024-01-27T03:46:17.548Z,102422.78
2024-01-27T03:48:44.653Z,102435.94
2024-01-27T03:51:22.837Z,102424.91
2024-01-27T03:53:58.924Z,102442.41
2024-01-27T03:56:37.731Z,102439.25
2024-01-27T03:59:06.155Z,102442.69
2024-01-27T04:01:32.986Z,102442.16
2024-01-27T04:06:43.311Z,102436.56
2024-01-27T04:09:10.551Z,102444.84
2024-01-27T04:11:38.153Z,102436.16
2024-01-27T04:14:06.210Z,102435.88
2024-01-27T04:16:33.212Z,102426.66
2024-01-27T04:19:00.203Z,102445.78
2024-01-27T04:21:27.226Z,102437.88
2024-01-27T04:23:54.224Z,102432.59
2024-01-27T04:26:21.037Z,102430.63
2024-01-27T04:28:47.914Z,102431.16
2024-01-27T04:31:15.008Z,102422.97
2024-01-27T04:33:41.883Z,102436.34
2024-01-27T04:36:10.190Z,102444.66
2024-01-27T04:38:37.252Z,102447.63
2024-01-27T04:41:04.291Z,102455.06
2024-01-27T04:43:31.112Z,102453.00
2024-01-27T04:45:57.988Z,102443.66
2024-01-27T04:48:24.903Z,102434.28
2024-01-27T04:50:52.266Z,102434.09
2024-01-27T04:53:19.294Z,102435.38
2024-01-27T04:55:46.089Z,102433.47
2024-01-27T04:58:12.877Z,102426.72
2024-01-27T05:00:39.802Z,102432.03
2024-01-27T05:03:09.033Z,102421.75
2024-01-27T05:05:37.011Z,102431.31
2024-01-27T05:08:04.401Z,102437.09
2024-01-27T05:10:31.289Z,102429.59
2024-01-27T05:12:58.179Z,102431.97
2024-01-27T05:15:25.036Z,102436.69
2024-01-27T05:17:52.214Z,102435.59
2024-01-27T05:20:20.307Z,102432.03
2024-01-27T05:22:47.314Z,102432.38
2024-01-27T05:25:14.096Z,102433.59
2024-01-27T05:27:40.948Z,102435.31
2024-01-27T05:30:08.270Z,102442.75
2024-01-27T05:32:35.253Z,102438.31
2024-01-27T05:35:02.063Z,102451.72
2024-01-27T05:37:28.870Z,102452.66
2024-01-27T05:39:55.731Z,102459.63
2024-01-27T05:42:22.958Z,102456.81
2024-01-27T05:44:49.825Z,102458.78
2024-01-27T05:47:16.683Z,102451.44
2024-01-27T05:49:43.578Z,102454.59
2024-01-27T05:52:10.652Z,102460.63
2024-01-27T05:54:38.093Z,102458.28
2024-01-27T05:57:05.158Z,102462.94
2024-01-27T05:59:32.055Z,102464.25
2024-01-27T06:01:59.300Z,102455.75
2024-01-27T06:04:26.285Z,102455.75
2024-01-27T06:06:53.218Z,102467.63
2024-01-27T06:09:20.161Z,102474.22
2024-01-27T06:11:47.032Z,102481.59
2024-01-27T06:14:13.827Z,102491.66
2024-01-27T06:16:40.655Z,102500.72
2024-01-27T06:19:07.794Z,102508.25
2024-01-27T06:21:34.785Z,102511.06
2024-01-27T06:24:01.616Z,102508.06
2024-01-27T06:26:28.440Z,102505.84
2024-01-27T06:28:55.252Z,102506.66
2024-01-27T06:31:22.322Z,102507.81
2024-01-27T06:33:49.319Z,102510.41
2024-01-27T06:36:16.371Z,102513.66
2024-01-27T06:38:43.175Z,102521.25
2024-01-27T06:41:11.114Z,102523.34
2024-01-27T06:43:37.940Z,102527.56
2024-01-27T06:46:04.922Z,102527.97
2024-01-27T06:48:31.913Z,102532.03
2024-01-27T06:50:58.876Z,102532.22
2024-01-27T06:53:25.727Z,102544.59
2024-01-27T06:55:52.560Z,102537.84
2024-01-27T06:58:19.394Z,102545.75
2024-01-27T07:00:46.426Z,102542.13
2024-01-27T07:03:14.136Z,102534.69
2024-01-27T07:05:42.347Z,102534.69
2024-01-27T07:08:09.566Z,102537.91
2024-01-27T07:10:36.936Z,102542.47
2024-01-27T07:13:03.831Z,102541.16
2024-01-27T07:15:30.751Z,102548.75
2024-01-27T07:17:57.907Z,102547.53
2024-01-27T07:20:25.818Z,102551.47
2024-01-27T07:22:52.766Z,102549.03
2024-01-27T07:25:19.998Z,102535.63
2024-01-27T07:27:47.776Z,102533.16
2024-01-27T07:30:16.581Z,102531.06
2024-01-27T07:32:45.582Z,102529.09
2024-01-27T07:35:12.489Z,102527.09
2024-01-27T07:37:39.434Z,102515.84
2024-01-27T07:40:06.907Z,102517.63
2024-01-27T07:42:34.015Z,102523.59
2024-01-27T07:45:01.022Z,102522.91
2024-01-27T07:47:28.136Z,102523.28
2024-01-27T07:49:55.391Z,102524.63
2024-01-27T07:52:22.303Z,102538.38
2024-01-27T07:54:50.452Z,102539.38
2024-01-27T07:57:17.510Z,102523.44
2024-01-27T07:59:44.325Z,102531.84
2024-01-27T08:02:11.157Z,102528.91
2024-01-27T08:04:39.270Z,102525.19
2024-01-27T08:07:11.407Z,102532.03
2024-01-27T08:09:39.609Z,102528.69
2024-01-27T08:12:06.929Z,102539.66
2024-01-27T08:14:35.042Z,102542.50
2024-01-27T08:17:01.893Z,102546.53
2024-01-27T08:19:29.020Z,102552.78
2024-01-27T08:21:55.984Z,102564.81
2024-01-27T08:24:25.601Z,102564.22
2024-01-27T08:26:52.780Z,102567.06
2024-01-27T08:29:19.803Z,102571.16
2024-01-27T08:31:46.785Z,102565.25
2024-01-27T08:34:16.478Z,102568.25
2024-01-27T08:36:43.436Z,102574.25
2024-01-27T08:39:10.503Z,102577.19
2024-01-27T08:41:37.866Z,102565.81
2024-01-27T08:44:04.923Z,102569.47
2024-01-27T08:46:31.954Z,102569.69
2024-01-27T08:48:59.152Z,102572.31
2024-01-27T08:51:26.320Z,102569.28
2024-01-27T08:53:53.214Z,102574.31
2024-01-27T08:56:20.191Z,102568.44
2024-01-27T08:58:49.161Z,102577.22
2024-01-27T09:01:17.405Z,102573.28
2024-01-27T09:03:44.545Z,102576.66
2024-01-27T09:06:11.728Z,102574.91
2024-01-27T09:08:38.611Z,102576.91
2024-01-27T09:11:05.563Z,102584.88
2024-01-27T09:13:33.120Z,102573.78
2024-01-27T09:16:00.579Z,102583.63
2024-01-27T09:18:28.602Z,102584.81
2024-01-27T09:20:55.777Z,102589.94
2024-01-27T09:23:23.006Z,102605.72
2024-01-27T09:25:50.025Z,102598.13
2024-01-27T09:28:17.610Z,102602.66
2024-01-27T09:30:44.843Z,102592.28
2024-01-27T09:33:12.696Z,102582.13
2024-01-27T09:35:39.718Z,102583.13
2024-01-27T09:38:07.489Z,102585.31
2024-01-27T09:40:34.456Z,102591.31
2024-01-27T09:43:02.153Z,102586.03
2024-01-27T09:45:29.390Z,102598.44
2024-01-27T09:47:59.163Z,102605.75
2024-01-27T09:50:26.267Z,102611.88
2024-01-27T09:52:55.018Z,102609.31
2024-01-27T09:55:23.609Z,102605.91
2024-01-27T09:57:50.927Z,102596.31
2024-01-27T10:00:18.456Z,102592.03
2024-01-27T10:02:46.991Z,102601.91
2024-01-27T10:05:14.219Z,102595.16
2024-01-27T10:07:43.578Z,102597.78
2024-01-27T10:10:10.898Z,102599.53
2024-01-27T10:12:44.247Z,102601.25
2024-01-27T10:15:24.441Z,102605.78
2024-01-27T10:17:51.714Z,102604.22
2024-01-27T10:20:20.804Z,102600.75
2024-01-27T10:22:48.128Z,102609.59
2024-01-27T10:25:16.265Z,102597.31
2024-01-27T10:27:43.484Z,102602.69
2024-01-27T10:30:20.146Z,102609.75
2024-01-27T10:32:57.457Z,102594.00
2024-01-27T10:35:24.420Z,102605.41
2024-01-27T10:37:59.149Z,102599.25
2024-01-27T10:40:28.276Z,102600.06
2024-01-27T10:43:05.438Z,102597.31
2024-01-27T10:45:36.482Z,102600.75
2024-01-27T10:48:04.539Z,102598.09
2024-01-27T10:50:32.009Z,102604.22
2024-01-27T10:52:59.718Z,102606.84
2024-01-27T10:55:26.694Z,102600.63
2024-01-27T10:57:55.805Z,102598.84
2024-01-27T11:00:22.993Z,102605.81
2024-01-27T11:02:54.719Z,102610.16
2024-01-27T11:05:23.053Z,102603.25
2024-01-27T11:07:50.573Z,102601.53
2024-01-27T11:10:17.879Z,102595.34
2024-01-27T11:12:47.504Z,102600.53
2024-01-27T11:15:15.481Z,102601.38
2024-01-27T11:17:43.083Z,102600.63
2024-01-27T11:20:12.826Z,102610.31
2024-01-27T11:22:40.830Z,102609.41
2024-01-27T11:25:14.191Z,102610.22
2024-01-27T11:27:43.502Z,102611.06
2024-01-27T11:30:30.468Z,102614.53
2024-01-27T11:32:58.574Z,102611.94
2024-01-27T11:35:26.076Z,102618.94
2024-01-27T11:37:52.985Z,102611.97
2024-01-27T11:40:20.344Z,102608.44
2024-01-27T11:43:00.658Z,102607.53
2024-01-27T11:45:29.508Z,102615.25
2024-01-27T11:47:57.195Z,102608.19
2024-01-27T11:50:24.484Z,102603.78
2024-01-27T11:52:51.371Z,102605.50
2024-01-27T11:55:20.424Z,102603.81
2024-01-27T11:57:47.231Z,102614.31
2024-01-27T12:00:14.233Z,102602.88
2024-01-27T12:02:41.544Z,102602.00
2024-01-27T12:05:09.588Z,102605.47
2024-01-27T12:07:36.688Z,102595.88
2024-01-27T12:10:03.603Z,102607.34
2024-01-27T12:12:30.389Z,102599.47
2024-01-27T12:14:57.330Z,102597.72
2024-01-27T12:17:24.497Z,102596.03
2024-01-27T12:19:54.297Z,102600.44
2024-01-27T12:22:27.533Z,102607.53
2024-01-27T12:25:09.425Z,102588.22
2024-01-27T12:27:36.534Z,102606.69
2024-01-27T12:30:04.627Z,102601.59
2024-01-27T12:32:32.498Z,102610.22
2024-01-27T12:35:04.140Z,102605.81
2024-01-27T12:37:31.016Z,102601.41
2024-01-27T12:39:58.352Z,102600.59
2024-01-27T12:42:25.367Z,102592.81
2024-01-27T12:44:52.664Z,102592.69
2024-01-27T12:47:21.337Z,102604.81
2024-01-27T12:49:48.507Z,102610.06
2024-01-27T12:52:16.063Z,102612.63
2024-01-27T12:54:43.108Z,102603.03
2024-01-27T12:57:10.417Z,102589.09
2024-01-27T12:59:39.575Z,102591.50
2024-01-27T13:02:06.414Z,102598.44
2024-01-27T13:04:33.323Z,102585.97
2024-01-27T13:07:01.369Z,102579.09
2024-01-27T13:09:28.447Z,102581.66
2024-01-27T13:11:55.562Z,102587.59
2024-01-27T13:14:23.235Z,102583.41
2024-01-27T13:16:50.194Z,102584.31
2024-01-27T13:19:17.181Z,102577.25
2024-01-27T13:21:44.130Z,102572.00
2024-01-27T13:24:11.035Z,102579.34
2024-01-27T13:26:39.276Z,102580.94
2024-01-27T13:29:06.364Z,102578.34
2024-01-27T13:31:33.736Z,102569.53
2024-01-27T13:34:00.997Z,102553.69
2024-01-27T13:36:30.632Z,102565.00
2024-01-27T13:38:59.513Z,102564.91
2024-01-27T13:41:26.563Z,102560.63
2024-01-27T13:43:53.814Z,102564.13
2024-01-27T13:46:20.827Z,102568.59
2024-01-27T13:48:48.575Z,102579.94
2024-01-27T13:51:15.882Z,102572.94
2024-01-27T13:53:47.224Z,102579.84
2024-01-27T13:56:15.659Z,102589.41
2024-01-27T13:58:43.138Z,102594.72
2024-01-27T14:01:10.170Z,102588.66
2024-01-27T14:03:38.958Z,102593.81
2024-01-27T14:06:06.223Z,102594.69
2024-01-27T14:08:33.185Z,102591.41
2024-01-27T14:11:00.145Z,102602.06
2024-01-27T14:13:29.532Z,102604.69
2024-01-27T14:15:56.403Z,102607.09
2024-01-27T14:18:23.770Z,102604.44
2024-01-27T14:20:52.158Z,102615.81
2024-01-27T14:23:19.387Z,102626.38
2024-01-27T14:25:47.936Z,102621.16
2024-01-27T14:28:15.696Z,102617.41
2024-01-27T14:30:42.911Z,102613.97
2024-01-27T14:33:10.430Z,102613.03
2024-01-27T14:35:37.521Z,102618.34
2024-01-27T14:38:06.108Z,102624.53
2024-01-27T14:40:34.063Z,102633.88
2024-01-27T14:43:01.613Z,102630.41
2024-01-27T14:45:28.510Z,102630.44
2024-01-27T14:47:59.077Z,102634.97
2024-01-27T14:50:27.188Z,102635.97
2024-01-27T14:52:53.992Z,102635.81
2024-01-27T14:55:21.601Z,102629.50
2024-01-27T14:57:48.569Z,102637.97
2024-01-27T15:00:17.064Z,102641.41
2024-01-27T15:02:47.323Z,102634.41
2024-01-27T15:05:14.218Z,102633.31
2024-01-27T15:07:41.066Z,102635.97
2024-01-27T15:10:08.524Z,102649.31
2024-01-27T15:12:35.615Z,102650.06
2024-01-27T15:15:02.899Z,102647.56
2024-01-27T15:17:29.939Z,102645.75
2024-01-27T15:19:57.549Z,102643.03
2024-01-27T15:22:24.511Z,102637.56
2024-01-27T15:24:51.584Z,102647.13
2024-01-27T15:27:18.439Z,102639.03
2024-01-27T15:29:45.376Z,102651.28
2024-01-27T15:32:12.169Z,102657.53
2024-01-27T15:34:39.095Z,102651.69
2024-01-27T15:37:07.411Z,102652.50
2024-01-27T15:39:34.722Z,102661.78
2024-01-27T15:42:05.370Z,102667.19
2024-01-27T15:44:32.567Z,102664.53
2024-01-27T15:47:01.154Z,102666.31
2024-01-27T15:49:29.259Z,102667.28
2024-01-27T15:51:56.221Z,102677.50
2024-01-27T15:54:23.504Z,102686.00
2024-01-27T15:56:50.426Z,102684.06
2024-01-27T15:59:17.332Z,102683.78
2024-01-27T16:01:44.609Z,102683.34
2024-01-27T16:04:11.631Z,102694.66
2024-01-27T16:06:38.948Z,102686.50
2024-01-27T16:09:09.016Z,102695.25
2024-01-27T16:11:35.860Z,102702.03
2024-01-27T16:14:02.688Z,102710.69
2024-01-27T16:16:31.181Z,102706.69
2024-01-27T16:18:58.196Z,102711.94
2024-01-27T16:21:26.378Z,102712.84
2024-01-27T16:23:53.272Z,102718.84
2024-01-27T16:26:20.487Z,102726.66
2024-01-27T16:28:48.654Z,102734.22
2024-01-27T16:31:16.047Z,102725.63
2024-01-27T16:33:43.112Z,102721.28
2024-01-27T16:36:10.159Z,102730.25
2024-01-27T16:38:37.293Z,102727.44
2024-01-27T16:41:04.086Z,102719.38
2024-01-27T16:43:30.902Z,102735.44
2024-01-27T16:45:58.377Z,102739.59
2024-01-27T16:48:25.594Z,102743.88
2024-01-27T16:50:52.492Z,102736.44
2024-01-27T16:53:19.521Z,102741.31
2024-01-27T16:55:46.361Z,102749.00
2024-01-27T16:58:13.491Z,102750.66
2024-01-27T17:03:16.510Z,102742.59
2024-01-27T17:05:44.262Z,102746.56
2024-01-27T17:08:11.121Z,102747.72
2024-01-27T17:10:38.161Z,102751.91
2024-01-27T17:13:05.403Z,102759.16
2024-01-27T17:15:32.173Z,102775.94
2024-01-27T17:17:59.146Z,102787.78
2024-01-27T17:20:26.417Z,102784.19
2024-01-27T17:22:53.872Z,102780.44
2024-01-27T17:25:20.810Z,102774.09
2024-01-27T17:27:47.643Z,102775.13
2024-01-27T17:30:15.057Z,102785.97
2024-01-27T17:32:44.426Z,102781.53
2024-01-27T17:35:11.742Z,102784.03
2024-01-27T17:37:38.547Z,102786.06
2024-01-27T17:40:07.729Z,102790.63
2024-01-27T17:42:35.658Z,102795.25
2024-01-27T17:45:04.588Z,102804.97
2024-01-27T17:47:32.856Z,102814.06
2024-01-27T17:49:59.705Z,102819.19
2024-01-27T17:52:26.591Z,102836.69
2024-01-27T17:54:53.507Z,102840.66
2024-01-27T17:57:20.416Z,102842.00
2024-01-27T17:59:48.106Z,102840.09
2024-01-27T18:02:14.977Z,102846.22
2024-01-27T18:04:41.837Z,102844.09
2024-01-27T18:07:08.905Z,102846.81
2024-01-27T18:09:35.786Z,102848.28
2024-01-27T18:12:03.000Z,102852.47
2024-01-27T18:14:29.942Z,102852.53
2024-01-27T18:16:56.672Z,102861.84
2024-01-27T18:19:23.836Z,102872.38
2024-01-27T18:21:51.532Z,102871.03
2024-01-27T18:24:18.946Z,102894.19
2024-01-27T18:26:46.144Z,102890.25
2024-01-27T18:29:13.018Z,102906.19
2024-01-27T18:31:44.065Z,102909.25
2024-01-27T18:34:11.643Z,102923.63
2024-01-27T18:36:38.945Z,102922.25
2024-01-27T18:39:06.088Z,102927.75
2024-01-27T18:41:33.081Z,102927.06
2024-01-27T18:44:00.558Z,102934.03
2024-01-27T18:46:27.478Z,102938.47
2024-01-27T18:48:54.613Z,102929.69
2024-01-27T18:51:21.836Z,102922.28
2024-01-27T18:53:48.696Z,102925.25
2024-01-27T18:56:15.685Z,102936.38
2024-01-27T18:58:42.675Z,102932.25
2024-01-27T19:01:10.020Z,102934.66
2024-01-27T19:03:37.501Z,102939.47
2024-01-27T19:06:04.511Z,102942.97
2024-01-27T19:08:31.359Z,102940.97
2024-01-27T19:10:58.246Z,102935.69
2024-01-27T19:13:26.570Z,102947.69
2024-01-27T19:15:56.126Z,102951.75
2024-01-27T19:18:23.403Z,102946.34
2024-01-27T19:20:50.742Z,102946.66
2024-01-27T19:23:17.571Z,102956.25
2024-01-27T19:25:44.592Z,102948.19
2024-01-27T19:28:11.378Z,102943.41
2024-01-27T19:30:38.210Z,102958.56
2024-01-27T19:33:05.496Z,102958.50
2024-01-27T19:35:32.411Z,102957.88
2024-01-27T19:38:00.277Z,102943.59
2024-01-27T19:40:27.156Z,102960.38
2024-01-27T19:42:55.103Z,102950.91
2024-01-27T19:45:22.934Z,102958.91
2024-01-27T19:47:50.075Z,102956.13
2024-01-27T19:50:17.307Z,102963.34
2024-01-27T19:52:44.215Z,102975.22
2024-01-27T19:55:12.561Z,102978.53
2024-01-27T19:57:40.443Z,102985.09
2024-01-27T20:00:10.001Z,102989.44
2024-01-27T20:02:36.888Z,102982.59
2024-01-27T20:05:05.729Z,102997.75
2024-01-27T20:07:36.132Z,103000.00
2024-01-27T20:10:04.657Z,102999.97
2024-01-27T20:12:32.581Z,102992.69
2024-01-27T20:15:00.544Z,102988.94
2024-01-27T20:17:27.533Z,102999.03
2024-01-27T20:19:56.343Z,103003.66
2024-01-27T20:22:24.768Z,102994.78
2024-01-27T20:24:52.977Z,103005.31
2024-01-27T20:27:20.344Z,103010.94
2024-01-27T20:29:47.172Z,103011.44
2024-01-27T20:32:14.003Z,103017.44
2024-01-27T20:34:41.401Z,103016.47
2024-01-27T20:37:11.272Z,103019.44
2024-01-27T20:39:45.630Z,103031.47
2024-01-27T20:42:12.723Z,103034.97
2024-01-27T20:44:39.655Z,103042.31
2024-01-27T20:47:06.660Z,103050.59
2024-01-27T20:49:34.389Z,103048.59
2024-01-27T20:52:01.554Z,103055.13
2024-01-27T20:54:28.662Z,103049.25
2024-01-27T20:56:56.040Z,103048.94
2024-01-27T20:59:24.265Z,103054.50
2024-01-27T21:01:51.332Z,103053.63
2024-01-27T21:04:18.370Z,103066.28
2024-01-27T21:06:46.228Z,103063.22
2024-01-27T21:09:13.637Z,103065.34
2024-01-27T21:11:40.784Z,103066.13
2024-01-27T21:14:07.844Z,103062.19
2024-01-27T21:16:34.755Z,103071.00
2024-01-27T21:19:04.452Z,103067.16
2024-01-27T21:21:31.712Z,103070.31
2024-01-27T21:23:58.634Z,103065.63
2024-01-27T21:26:25.616Z,103070.88
2024-01-27T21:28:52.678Z,103073.97
2024-01-27T21:31:19.687Z,103074.03
2024-01-27T21:33:46.577Z,103071.47
2024-01-27T21:36:13.564Z,103085.66
2024-01-27T21:38:40.532Z,103087.59
2024-01-27T21:41:07.896Z,103089.41
2024-01-27T21:43:34.909Z,103086.72
2024-01-27T21:46:02.486Z,103088.00
2024-01-27T21:48:30.790Z,103081.03
2024-01-27T21:50:57.631Z,103082.41
2024-01-27T21:53:25.187Z,103092.34
2024-01-27T21:55:52.583Z,103097.31
2024-01-27T21:58:19.586Z,103096.53
2024-01-27T22:00:46.644Z,103107.34
2024-01-27T22:03:14.362Z,103111.00
2024-01-27T22:05:41.457Z,103125.38
2024-01-27T22:08:08.586Z,103129.81
2024-01-27T22:10:37.072Z,103139.22
2024-01-27T22:13:04.251Z,103134.53
2024-01-27T22:15:31.425Z,103137.00
2024-01-27T22:17:58.550Z,103146.47
2024-01-27T22:20:25.642Z,103147.16
2024-01-27T22:22:52.523Z,103143.78
2024-01-27T22:25:20.458Z,103151.69
2024-01-27T22:27:47.272Z,103150.13
2024-01-27T22:30:16.302Z,103146.44
2024-01-27T22:32:43.620Z,103150.38
2024-01-27T22:35:11.794Z,103158.06
2024-01-27T22:37:38.997Z,103166.53
2024-01-27T22:40:09.978Z,103173.81
2024-01-27T22:42:37.424Z,103174.22
2024-01-27T22:45:04.557Z,103171.56
2024-01-27T22:47:36.223Z,103156.47
2024-01-27T22:50:05.315Z,103157.34
2024-01-27T22:52:32.725Z,103160.94
2024-01-27T22:54:59.636Z,103174.78
2024-01-27T22:57:26.411Z,103175.75
2024-01-27T22:59:53.296Z,103183.88
2024-01-27T23:02:20.527Z,103169.09
2024-01-27T23:04:48.108Z,103176.56
2024-01-27T23:07:16.451Z,103178.28
2024-01-27T23:09:45.043Z,103173.41
2024-01-27T23:12:12.876Z,103166.50
2024-01-27T23:14:39.808Z,103157.13
2024-01-27T23:17:06.858Z,103149.38
2024-01-27T23:19:36.087Z,103157.44
2024-01-27T23:22:04.378Z,103169.28
2024-01-27T23:24:33.393Z,103167.66
2024-01-27T23:27:01.211Z,103172.72
2024-01-27T23:29:28.516Z,103174.06
2024-01-27T23:31:55.498Z,103156.75
2024-01-27T23:34:22.809Z,103163.16
2024-01-27T23:36:51.212Z,103166.88
2024-01-27T23:39:18.413Z,103173.13
2024-01-27T23:41:45.824Z,103175.19
2024-01-27T23:44:12.677Z,103174.06
2024-01-27T23:46:39.609Z,103175.19
2024-01-27T23:49:06.599Z,103177.69
2024-01-27T23:51:36.274Z,103183.97
2024-01-27T23:54:03.328Z,103180.25
2024-01-27T23:56:30.566Z,103188.50
2024-01-27T23:58:57.608Z,103190.25
